MET'MAP v2.0
soon released !

Expected late october,
this new version will be
more efficient, smarter,
and hosted on a brand new
server x3 powerfull...
...and still free !


Not compatible ?
Try the mobile version !

LOG IN : | Subscribe | Disclaimer | Who is Orbifly ? |
ICAO code :

TAF - LYBE Belgrade Nikola Tesla - 31 Oct 2020 20:33 UTC - Data Source NOAA   


- Airport Elevation : 335 ft
- IATA code : BEG
- No reported NOTAMs.


LYBE - Belgrade Nikola Tesla

Latest METAR recorded : 2015/08/11 08:00 LYBE 110800Z 07004KT 030V140 CAVOK 30/12 Q1013 NOSIG
TAF TAF LYBE
Valid from the 31 at 18:00 until the 01 at 18:00 UTC


311700Z 3118/0118 04005KT 9999 SCT013 TX15/0112Z TN05/0105Z
BECMG 3121/3123 3000 BR
BECMG 0101/0103 0300 FG VV002
BECMG 0106/0108 3000 BR SCT005
BECMG 0108/0110 8000 NSW

Source NOAA


MET'MAP, your aeronautical weather chart ! - Copyright ORBIFLY December 2007

Programming & Development : Alexandra Zaïnal
Co-Developer : Marc-Olivier Méhu
Technical & hardware support : Manuel Goepfert
Concept & Financing : Baudouin d'Aumeries